Bald Eagle
, Park City
Last Weather Update:02/23/2012 7:00:00 PM
Date
ETo
ETc
Rain
Irrigation
Req
Temp
Max
Temp
Min
Temp
Avg
Avg RH
Avg Wind
Avg Solar
inches
inches
incehs
inches
F
F
F
%
%
watts/m2
01/01/2012 0.05" 0.00" 0.00" 0.00" 46.5° 18.2° 31.7° 55.5% 1.7 MPH 111.9w/m2
01/02/2012 0.07" 0.00" 0.00" 0.00" 50.1° 34.8° 41.2° 23.9% 4.9 MPH 114.4w/m2
01/03/2012 0.07" 0.00" 0.00" 0.00" 47.0° 31.3° 39.3° 28.5% 4.6 MPH 109.4w/m2
01/04/2012 0.05" 0.00" 0.00" 0.00" 50.4° 30.3° 38.7° 28.9% 1.6 MPH 112.6w/m2
01/05/2012 0.05" 0.00" 0.00" 0.00" 51.9° 34.3° 40.7° 42.8% 1.7 MPH 114.0w/m2
01/06/2012 0.04" 0.00" 0.00" 0.00" 41.1° 27.3° 33.0° 74.6% 2.3 MPH 116.6w/m2
01/07/2012 0.00" 0.00" 0.00" 0.00" 28.3° 12.3° 20.0° 94.6% 4.9 MPH 36.9w/m2
01/08/2012 0.01" 0.00" 0.00" 0.00" 22.3° 8.0° 16.3° 93.3% 6.1 MPH 66.1w/m2
01/09/2012 0.03" 0.00" 0.13" -0.10" 33.5° 18.9° 26.6° 81.6% 3.0 MPH 116.5w/m2
01/10/2012 0.04" 0.00" 0.00" 0.00" 42.8° 22.5° 31.6° 72.5% 3.4 MPH 113.5w/m2
01/11/2012 0.03" 0.00" 0.00" 0.00" 23.5° 9.3° 15.5° 35.6% 6.6 MPH 122.1w/m2
01/12/2012 0.04" 0.00" 0.00" 0.00" 26.6° 10.2° 18.2° 16.9% 3.7 MPH 121.7w/m2
01/13/2012 0.04" 0.00" 0.00" 0.00" 35.6° 15.3° 25.0° 32.6% 2.0 MPH 122.4w/m2
01/14/2012 0.07" 0.00" 0.00" 0.00" 43.3° 26.1° 34.6° 15.8% 6.2 MPH 126.4w/m2
01/15/2012 0.08" 0.00" 0.00" 0.00" 36.4° 28.6° 32.9° 31.6% 11.0 MPH 88.7w/m2
01/16/2012 0.02" 0.00" 0.00" 0.00" 28.9° 2.2° 13.2° 72.9% 8.6 MPH 49.4w/m2
01/17/2012 0.03" 0.00" 0.00" 0.00" 21.0° 0.0° 10.1° 29.9% 5.0 MPH 127.6w/m2
01/18/2012 0.03" 0.00" 0.00" 0.00" 31.5° 20.6° 24.3° 96.7% 5.6 MPH 84.4w/m2
01/19/2012 0.03" 0.00" 0.17" -0.14" 42.8° 25.7° 31.7° 88.0% 5.3 MPH 82.9w/m2
01/20/2012 0.02" 0.00" 0.14" -0.11" 32.5° 26.3° 29.4° 82.5% 4.5 MPH 34.3w/m2
01/21/2012 0.01" 0.00" 0.00" 0.00" 33.1° 18.0° 26.8° 96.3% 11.2 MPH 18.7w/m2
01/22/2012 0.03" 0.00" 0.17" -0.14" 26.3° 12.8° 18.0° 61.5% 6.1 MPH 129.8w/m2
01/23/2012 0.02" 0.00" 0.00" 0.00" 26.6° 18.1° 20.9° 97.7% 5.9 MPH 71.1w/m2
01/24/2012 0.02" 0.00" 0.01" -0.01" 25.5° 15.0° 19.1° 55.4% 3.9 MPH 101.6w/m2
01/25/2012 0.04" 0.00" 0.00" 0.00" 39.2° 16.9° 27.7° 68.9% 3.3 MPH 128.4w/m2
01/26/2012 0.02" 0.00" 0.02" -0.02" 37.2° 24.1° 28.5° 79.7% 5.7 MPH 80.7w/m2
01/27/2012 0.03" 0.00" 0.10" -0.08" 25.0° 9.4° 16.8° 57.3% 5.5 MPH 138.6w/m2
01/28/2012 0.04" 0.00" 0.01" -0.01" 29.0° 9.7° 18.6° 25.1% 2.5 MPH 136.0w/m2
01/29/2012 0.05" 0.00" 0.00" 0.00" 40.7° 19.3° 29.5° 39.5% 3.3 MPH 126.3w/m2
01/30/2012 0.04" 0.00" 0.00" 0.00" 36.0° 22.2° 30.2° 76.8% 4.4 MPH 101.0w/m2
01/31/2012 0.04" 0.00" 0.00" 0.00" 36.2° 19.7° 25.5° 56.6% 1.9 MPH 135.3w/m2
Totals: 1.19" 0.00" 0.75" -0.60" 51.9° 0.0° 26.3° 58.5% 4.7 MPH 101.3w/m2